createdAt,value
2022-12-27T00:01:44.187Z,101976.47
2022-12-27T00:04:10.983Z,101963.88
2022-12-27T00:06:38.271Z,101967.47
2022-12-27T00:09:06.107Z,101965.69
2022-12-27T00:11:35.491Z,101966.22
2022-12-27T00:14:12.623Z,101965.00
2022-12-27T00:16:39.737Z,101960.56
2022-12-27T00:19:06.591Z,101950.03
2022-12-27T00:21:33.672Z,101946.00
2022-12-27T00:24:00.878Z,101939.38
2022-12-27T00:26:32.933Z,101948.38
2022-12-27T00:29:00.353Z,101937.44
2022-12-27T00:31:30.471Z,101945.31
2022-12-27T00:34:01.184Z,101950.31
2022-12-27T00:36:30.186Z,101948.66
2022-12-27T00:39:00.526Z,101950.56
2022-12-27T00:41:27.828Z,101938.53
2022-12-27T00:43:54.942Z,101949.31
2022-12-27T00:46:21.674Z,101934.38
2022-12-27T00:48:49.073Z,101938.66
2022-12-27T00:51:21.744Z,101925.94
2022-12-27T00:53:51.645Z,101928.97
2022-12-27T00:56:22.226Z,101931.19
2022-12-27T00:58:53.745Z,101920.16
2022-12-27T01:01:24.841Z,101904.53
2022-12-27T01:03:52.348Z,101897.25
2022-12-27T01:06:22.232Z,101908.28
2022-12-27T01:08:50.275Z,101899.81
2022-12-27T01:11:18.592Z,101893.50
2022-12-27T01:13:45.948Z,101898.50
2022-12-27T01:16:14.775Z,101887.84
2022-12-27T01:18:41.593Z,101896.72
2022-12-27T01:21:12.969Z,101906.25
2022-12-27T01:23:40.464Z,101901.81
2022-12-27T01:26:11.417Z,101903.22
2022-12-27T01:28:39.237Z,101894.09
2022-12-27T01:31:08.174Z,101892.69
2022-12-27T01:33:36.272Z,101899.59
2022-12-27T01:36:13.833Z,101898.91
2022-12-27T01:38:43.502Z,101900.16
2022-12-27T01:41:26.219Z,101904.56
2022-12-27T01:43:53.085Z,101894.88
2022-12-27T01:46:19.982Z,101901.66
2022-12-27T01:48:49.305Z,101895.72
2022-12-27T01:51:19.274Z,101889.63
2022-12-27T01:53:52.399Z,101893.06
2022-12-27T01:56:26.650Z,101890.84
2022-12-27T01:58:59.966Z,101899.28
2022-12-27T02:01:40.369Z,101890.13
2022-12-27T02:04:17.092Z,101889.34
2022-12-27T02:06:48.326Z,101885.69
2022-12-27T02:09:24.988Z,101877.94
2022-12-27T02:11:59.182Z,101878.88
2022-12-27T02:14:40.279Z,101884.13
2022-12-27T02:17:15.311Z,101893.69
2022-12-27T02:19:41.990Z,101885.66
2022-12-27T02:22:14.800Z,101883.56
2022-12-27T02:24:53.140Z,101889.47
2022-12-27T02:27:53.951Z,101884.50
2022-12-27T02:30:21.013Z,101876.75
2022-12-27T02:32:53.028Z,101879.75
2022-12-27T02:35:38.706Z,101880.59
2022-12-27T02:38:28.532Z,101885.59
2022-12-27T02:40:56.753Z,101893.06
2022-12-27T02:43:23.835Z,101883.13
2022-12-27T02:46:21.228Z,101886.03
2022-12-27T02:49:32.705Z,101886.31
2022-12-27T02:52:28.710Z,101871.75
2022-12-27T02:55:16.546Z,101881.88
2022-12-27T02:57:57.005Z,101880.47
2022-12-27T03:00:25.409Z,101878.44
2022-12-27T03:03:22.331Z,101890.03
2022-12-27T03:06:14.048Z,101903.56
2022-12-27T03:09:12.762Z,101899.94
2022-12-27T03:11:48.683Z,101900.28
2022-12-27T03:14:23.535Z,101898.19
2022-12-27T03:17:05.242Z,101902.50
2022-12-27T03:19:56.010Z,101909.41
2022-12-27T03:22:25.964Z,101905.25
2022-12-27T03:24:54.502Z,101892.56
2022-12-27T03:27:29.685Z,101896.47
2022-12-27T03:30:01.729Z,101891.44
2022-12-27T03:32:28.311Z,101886.91
2022-12-27T03:35:19.839Z,101878.97
2022-12-27T03:37:59.861Z,101880.50
2022-12-27T03:40:58.193Z,101879.25
2022-12-27T03:43:25.021Z,101880.88
2022-12-27T03:46:01.031Z,101879.41
2022-12-27T03:48:33.521Z,101875.13
2022-12-27T03:51:07.242Z,101878.72
2022-12-27T03:53:43.738Z,101880.19
2022-12-27T03:56:10.982Z,101872.16
2022-12-27T03:58:37.622Z,101870.63
2022-12-27T04:01:04.329Z,101889.28
2022-12-27T04:03:31.014Z,101893.41
2022-12-27T04:06:00.246Z,101890.53
2022-12-27T04:08:28.859Z,101890.09
2022-12-27T04:10:55.487Z,101889.94
2022-12-27T04:13:27.893Z,101892.41
2022-12-27T04:15:54.577Z,101892.69
2022-12-27T04:18:21.268Z,101894.19
2022-12-27T04:20:47.938Z,101891.56
2022-12-27T04:23:14.791Z,101903.63
2022-12-27T04:25:41.719Z,101906.53
2022-12-27T04:28:08.409Z,101902.63
2022-12-27T04:30:35.143Z,101890.16
2022-12-27T04:33:01.850Z,101893.78
2022-12-27T04:35:28.577Z,101868.22
2022-12-27T04:37:59.468Z,101870.38
2022-12-27T04:40:26.104Z,101875.63
2022-12-27T04:42:52.920Z,101872.25
2022-12-27T04:45:28.544Z,101895.28
2022-12-27T04:47:55.423Z,101893.59
2022-12-27T04:50:34.464Z,101896.03
2022-12-27T04:53:01.149Z,101904.03
2022-12-27T04:55:31.018Z,101903.28
2022-12-27T04:57:59.241Z,101897.59
2022-12-27T05:00:31.097Z,101894.91
2022-12-27T05:02:59.175Z,101897.16
2022-12-27T05:05:26.425Z,101898.13
2022-12-27T05:07:53.936Z,101912.94
2022-12-27T05:10:23.992Z,101909.50
2022-12-27T05:12:50.739Z,101891.59
2022-12-27T05:15:17.406Z,101889.28
2022-12-27T05:17:46.374Z,101898.38
2022-12-27T05:20:13.117Z,101897.78
2022-12-27T05:22:39.855Z,101898.03
2022-12-27T05:25:13.382Z,101899.66
2022-12-27T05:27:40.144Z,101902.94
2022-12-27T05:30:12.751Z,101915.22
2022-12-27T05:32:39.407Z,101915.09
2022-12-27T05:35:09.328Z,101916.06
2022-12-27T05:37:36.000Z,101920.94
2022-12-27T05:40:02.782Z,101921.47
2022-12-27T05:42:29.422Z,101926.91
2022-12-27T05:44:56.086Z,101927.31
2022-12-27T05:47:22.753Z,101934.25
2022-12-27T05:49:56.481Z,101932.88
2022-12-27T05:52:27.526Z,101939.34
2022-12-27T05:54:54.291Z,101942.81
2022-12-27T05:57:21.046Z,101942.56
2022-12-27T05:59:55.770Z,101940.88
2022-12-27T06:02:22.652Z,101952.94
2022-12-27T06:04:54.352Z,101951.44
2022-12-27T06:07:20.997Z,101950.25
2022-12-27T06:09:47.753Z,101957.31
2022-12-27T06:12:14.538Z,101958.94
2022-12-27T06:14:43.960Z,101957.81
2022-12-27T06:17:12.649Z,101955.34
2022-12-27T06:19:39.346Z,101959.63
2022-12-27T06:22:06.009Z,101959.88
2022-12-27T06:24:32.785Z,101971.16
2022-12-27T06:26:59.431Z,101971.66
2022-12-27T06:29:26.109Z,101966.97
2022-12-27T06:31:52.953Z,101974.63
2022-12-27T06:34:19.897Z,101982.41
2022-12-27T06:36:46.530Z,101969.91
2022-12-27T06:39:13.302Z,101971.47
2022-12-27T06:41:42.658Z,101981.38
2022-12-27T06:44:10.934Z,101984.94
2022-12-27T06:46:41.571Z,101989.06
2022-12-27T06:49:10.866Z,101996.38
2022-12-27T06:51:45.562Z,102001.28
2022-12-27T06:54:12.323Z,102005.56
2022-12-27T06:56:39.088Z,102012.94
2022-12-27T06:59:05.893Z,102011.88
2022-12-27T07:01:32.633Z,102013.47
2022-12-27T07:04:00.592Z,102020.25
2022-12-27T07:06:29.911Z,102022.22
2022-12-27T07:08:58.323Z,102028.94
2022-12-27T07:11:25.799Z,102024.53
2022-12-27T07:13:55.346Z,102027.59
2022-12-27T07:16:27.548Z,102029.50
2022-12-27T07:19:00.300Z,102028.53
2022-12-27T07:21:30.373Z,102029.25
2022-12-27T07:23:57.164Z,102028.16
2022-12-27T07:26:29.670Z,102030.94
2022-12-27T07:29:00.734Z,102026.16
2022-12-27T07:31:31.095Z,102037.03
2022-12-27T07:34:00.207Z,102033.81
2022-12-27T07:36:30.315Z,102036.00
2022-12-27T07:38:59.529Z,102042.91
2022-12-27T07:41:26.272Z,102042.63
2022-12-27T07:43:55.814Z,102049.53
2022-12-27T07:46:28.725Z,102049.03
2022-12-27T07:48:57.563Z,102055.19
2022-12-27T07:51:26.786Z,102052.28
2022-12-27T07:54:02.314Z,102059.81
2022-12-27T07:56:29.933Z,102064.25
2022-12-27T07:58:59.449Z,102066.16
2022-12-27T08:01:33.407Z,102071.56
2022-12-27T08:04:02.701Z,102069.50
2022-12-27T08:06:34.055Z,102070.94
2022-12-27T08:09:05.446Z,102076.41
2022-12-27T08:11:37.383Z,102074.72
2022-12-27T08:14:04.920Z,102074.97
2022-12-27T08:16:34.981Z,102076.84
2022-12-27T08:19:06.509Z,102084.16
2022-12-27T08:21:37.843Z,102078.75
2022-12-27T08:24:13.065Z,102076.59
2022-12-27T08:26:40.345Z,102076.94
2022-12-27T08:29:07.045Z,102074.94
2022-12-27T08:31:42.048Z,102077.34
2022-12-27T08:34:08.758Z,102081.56
2022-12-27T08:39:22.724Z,102082.03
2022-12-27T08:41:54.168Z,102087.22
2022-12-27T08:44:22.910Z,102095.91
2022-12-27T08:46:50.393Z,102090.19
2022-12-27T08:49:22.864Z,102089.28
2022-12-27T08:51:50.212Z,102095.38
2022-12-27T08:54:16.911Z,102101.84
2022-12-27T08:56:43.579Z,102102.16
2022-12-27T08:59:10.437Z,102099.41
2022-12-27T09:01:51.066Z,102106.97
2022-12-27T09:04:19.833Z,102108.66
2022-12-27T09:06:52.271Z,102107.88
2022-12-27T09:09:19.447Z,102116.91
2022-12-27T09:11:51.935Z,102102.81
2022-12-27T09:14:18.770Z,102117.09
2022-12-27T09:16:50.333Z,102121.41
2022-12-27T09:19:24.845Z,102115.72
2022-12-27T09:21:54.386Z,102120.03
2022-12-27T09:24:21.395Z,102116.31
2022-12-27T09:26:50.624Z,102124.66
2022-12-27T09:29:17.357Z,102132.47
2022-12-27T09:31:44.013Z,102134.31
2022-12-27T09:34:13.183Z,102125.22
2022-12-27T09:36:40.489Z,102127.97
2022-12-27T09:39:07.451Z,102115.66
2022-12-27T09:44:43.780Z,102118.09
2022-12-27T09:47:41.767Z,102117.69
2022-12-27T09:50:28.262Z,102118.94
2022-12-27T09:52:59.723Z,102119.19
2022-12-27T09:55:32.060Z,102115.91
2022-12-27T09:58:18.418Z,102113.94
2022-12-27T10:00:46.698Z,102117.97
2022-12-27T10:03:26.690Z,102109.56
2022-12-27T10:06:27.565Z,102112.72
2022-12-27T10:09:09.543Z,102113.63
2022-12-27T10:11:51.233Z,102111.72
2022-12-27T10:14:42.293Z,102101.69
2022-12-27T10:17:52.626Z,102101.44
2022-12-27T10:20:22.839Z,102104.06
2022-12-27T10:23:06.367Z,102101.03
2022-12-27T10:25:35.962Z,102103.53
2022-12-27T10:28:14.844Z,102102.88
2022-12-27T10:30:42.612Z,102100.25
2022-12-27T10:33:21.376Z,102099.69
2022-12-27T10:35:48.893Z,102098.56
2022-12-27T10:38:16.158Z,102087.34
2022-12-27T10:40:56.453Z,102095.69
2022-12-27T10:43:30.674Z,102094.28
2022-12-27T10:46:15.784Z,102095.69
2022-12-27T10:51:48.085Z,102087.94
2022-12-27T10:54:30.007Z,102099.03
2022-12-27T10:57:17.406Z,102090.03
2022-12-27T10:59:44.182Z,102089.50
2022-12-27T11:02:19.361Z,102085.00
2022-12-27T11:05:03.698Z,102087.53
2022-12-27T11:07:36.518Z,102086.25
2022-12-27T11:10:18.369Z,102081.69
2022-12-27T11:13:18.031Z,102085.06
2022-12-27T11:15:58.681Z,102075.75
2022-12-27T11:18:26.604Z,102077.94
2022-12-27T11:20:56.993Z,102072.16
2022-12-27T11:23:35.064Z,102064.91
2022-12-27T11:26:06.926Z,102058.00
2022-12-27T11:28:44.546Z,102056.03
2022-12-27T11:31:20.590Z,102056.19
2022-12-27T11:33:50.524Z,102053.00
2022-12-27T11:36:38.620Z,102055.06
2022-12-27T11:39:05.884Z,102055.63
2022-12-27T11:42:03.142Z,102047.03
2022-12-27T11:44:41.189Z,102049.34
2022-12-27T11:47:23.197Z,102044.50
2022-12-27T11:49:58.653Z,102039.75
2022-12-27T11:52:31.440Z,102039.63
2022-12-27T11:55:41.712Z,102041.72
2022-12-27T11:58:42.336Z,102031.56
2022-12-27T12:01:46.509Z,102020.03
2022-12-27T12:04:31.848Z,102029.56
2022-12-27T12:07:04.371Z,102031.22
2022-12-27T12:09:53.997Z,102030.13
2022-12-27T12:12:38.621Z,102034.06
2022-12-27T12:15:33.121Z,102025.31
2022-12-27T12:18:24.696Z,102024.50
2022-12-27T12:21:27.755Z,102016.75
2022-12-27T12:24:27.686Z,102012.44
2022-12-27T12:27:09.542Z,102006.88
2022-12-27T12:29:57.183Z,102004.41
2022-12-27T12:32:33.038Z,102009.78
2022-12-27T12:35:07.660Z,102012.34
2022-12-27T12:37:59.977Z,102011.84
2022-12-27T12:40:45.521Z,102008.50
2022-12-27T12:43:52.303Z,102016.53
2022-12-27T12:46:36.006Z,102010.84
2022-12-27T12:49:17.924Z,102014.13
2022-12-27T12:52:01.614Z,102006.22
2022-12-27T12:54:33.067Z,102002.22
2022-12-27T12:57:02.426Z,102004.66
2022-12-27T12:59:57.032Z,101999.84
2022-12-27T13:02:55.805Z,102002.22
2022-12-27T13:05:49.332Z,101995.25
2022-12-27T13:08:36.179Z,101997.09
2022-12-27T13:11:27.409Z,101993.25
2022-12-27T13:14:31.405Z,102000.47
2022-12-27T13:17:10.309Z,102002.97
2022-12-27T13:19:51.653Z,102000.44
2022-12-27T13:22:27.242Z,102001.88
2022-12-27T13:24:54.047Z,102009.78
2022-12-27T13:27:55.836Z,102005.66
2022-12-27T13:30:28.370Z,101999.59
2022-12-27T13:33:07.273Z,102003.94
2022-12-27T13:35:49.497Z,101997.00
2022-12-27T13:38:16.122Z,101994.38
2022-12-27T13:40:56.318Z,101997.00
2022-12-27T13:44:04.523Z,101991.22
2022-12-27T13:46:43.290Z,102002.22
2022-12-27T13:49:40.979Z,102003.25
2022-12-27T13:52:44.873Z,102005.88
2022-12-27T13:55:17.245Z,102005.06
2022-12-27T13:57:52.684Z,102003.25
2022-12-27T14:00:21.435Z,102011.16
2022-12-27T14:03:30.193Z,102013.53
2022-12-27T14:06:07.822Z,102010.44
2022-12-27T14:08:54.843Z,102008.63
2022-12-27T14:11:51.192Z,102006.00
2022-12-27T14:14:23.307Z,101997.69
2022-12-27T14:17:17.858Z,102002.28
2022-12-27T14:20:05.884Z,102007.94
2022-12-27T14:23:04.899Z,102007.69
2022-12-27T14:25:31.500Z,102007.44
2022-12-27T14:28:31.963Z,102010.34
2022-12-27T14:31:20.194Z,102007.50
2022-12-27T14:34:27.446Z,102015.81
2022-12-27T14:37:18.782Z,102015.38
2022-12-27T14:40:16.149Z,102025.53
2022-12-27T14:43:24.129Z,102021.38
2022-12-27T14:46:32.085Z,102024.72
2022-12-27T14:49:32.625Z,102033.03
2022-12-27T14:52:23.678Z,102026.28
2022-12-27T14:54:57.102Z,102034.06
2022-12-27T14:57:58.214Z,102018.50
2022-12-27T15:00:26.052Z,102016.97
2022-12-27T15:03:14.400Z,102024.91
2022-12-27T15:06:00.062Z,102019.91
2022-12-27T15:08:41.717Z,102026.41
2022-12-27T15:11:14.218Z,102027.25
2022-12-27T15:14:26.317Z,102023.91
2022-12-27T15:17:09.403Z,102027.00
2022-12-27T15:19:56.931Z,102033.94
2022-12-27T15:22:46.436Z,102039.94
2022-12-27T15:25:28.403Z,102034.94
2022-12-27T15:28:16.108Z,102043.81
2022-12-27T15:31:14.994Z,102043.94
2022-12-27T15:34:18.790Z,102041.03
2022-12-27T15:36:51.311Z,102043.94
2022-12-27T15:39:33.292Z,102052.84
2022-12-27T15:42:08.744Z,102046.59
2022-12-27T15:44:53.829Z,102049.53
2022-12-27T15:47:20.396Z,102052.69
2022-12-27T15:50:00.548Z,102051.50
2022-12-27T15:52:32.742Z,102044.75
2022-12-27T15:55:22.637Z,102051.00
2022-12-27T15:58:24.545Z,102047.13
2022-12-27T16:01:22.193Z,102051.03
2022-12-27T16:03:53.108Z,102055.75
2022-12-27T16:06:46.615Z,102058.41
2022-12-27T16:09:27.483Z,102062.44
2022-12-27T16:12:03.192Z,102067.72
2022-12-27T16:14:35.719Z,102065.59
2022-12-27T16:17:49.001Z,102062.84
2022-12-27T16:20:21.985Z,102064.19
2022-12-27T16:23:04.386Z,102061.47
2022-12-27T16:25:35.692Z,102062.28
2022-12-27T16:28:21.279Z,102061.03
2022-12-27T16:30:52.182Z,102055.38
2022-12-27T16:33:42.683Z,102061.03
2022-12-27T16:36:28.953Z,102055.63
2022-12-27T16:39:18.623Z,102055.06
2022-12-27T16:42:10.474Z,102053.00
2022-12-27T16:44:57.990Z,102053.56
2022-12-27T16:47:27.809Z,102057.88
2022-12-27T16:50:22.302Z,102054.66
2022-12-27T16:53:02.204Z,102054.78
2022-12-27T16:55:48.363Z,102064.78
2022-12-27T16:58:25.810Z,102066.03
2022-12-27T17:00:59.301Z,102063.41
2022-12-27T17:03:32.161Z,102073.69
2022-12-27T17:06:31.206Z,102074.06
2022-12-27T17:09:10.290Z,102067.16
2022-12-27T17:11:41.541Z,102066.97
2022-12-27T17:14:23.711Z,102075.31
2022-12-27T17:16:55.491Z,102071.59
2022-12-27T17:19:40.330Z,102077.69
2022-12-27T17:22:20.636Z,102080.03
2022-12-27T17:24:49.020Z,102085.59
2022-12-27T17:27:29.967Z,102087.38
2022-12-27T17:30:16.665Z,102091.66
2022-12-27T17:32:46.421Z,102095.00
2022-12-27T17:35:28.875Z,102094.47
2022-12-27T17:38:22.198Z,102102.06
2022-12-27T17:41:15.472Z,102105.25
2022-12-27T17:44:03.431Z,102101.94
2022-12-27T17:46:57.783Z,102109.00
2022-12-27T17:49:37.330Z,102115.91
2022-12-27T17:52:08.874Z,102108.59
2022-12-27T17:54:41.436Z,102112.06
2022-12-27T17:57:21.579Z,102109.41
2022-12-27T17:59:53.205Z,102113.72
2022-12-27T18:02:30.307Z,102116.50
2022-12-27T18:05:00.327Z,102107.88
2022-12-27T18:07:30.007Z,102107.34
2022-12-27T18:10:01.707Z,102112.16
2022-12-27T18:12:31.832Z,102111.19
2022-12-27T18:15:08.121Z,102107.47
2022-12-27T18:18:06.239Z,102107.47
2022-12-27T18:20:40.991Z,102106.63
2022-12-27T18:23:14.031Z,102107.31
2022-12-27T18:25:48.609Z,102109.25
2022-12-27T18:28:27.231Z,102112.19
2022-12-27T18:31:18.925Z,102115.78
2022-12-27T18:33:59.438Z,102104.13
2022-12-27T18:36:32.820Z,102107.88
2022-12-27T18:39:05.256Z,102114.41
2022-12-27T18:41:42.160Z,102121.88
2022-12-27T18:44:18.778Z,102126.44
2022-12-27T18:46:55.056Z,102128.13
2022-12-27T18:49:33.091Z,102127.16
2022-12-27T18:52:00.800Z,102129.22
2022-12-27T18:54:33.801Z,102136.72
2022-12-27T18:57:03.893Z,102132.41
2022-12-27T18:59:32.960Z,102127.66
2022-12-27T19:02:02.823Z,102133.09
2022-12-27T19:04:32.061Z,102131.28
2022-12-27T19:07:07.024Z,102143.63
2022-12-27T19:09:50.844Z,102133.75
2022-12-27T19:12:26.403Z,102140.44
2022-12-27T19:14:54.237Z,102136.13
2022-12-27T19:17:26.659Z,102133.38
2022-12-27T19:19:55.965Z,102129.22
2022-12-27T19:22:44.009Z,102131.13
2022-12-27T19:25:22.689Z,102117.84
2022-12-27T19:28:04.430Z,102120.22
2022-12-27T19:30:44.194Z,102124.34
2022-12-27T19:33:30.868Z,102120.75
2022-12-27T19:35:59.940Z,102122.84
2022-12-27T19:38:29.278Z,102128.13
2022-12-27T19:41:03.275Z,102122.97
2022-12-27T19:43:46.948Z,102113.00
2022-12-27T19:46:18.009Z,102121.03
2022-12-27T19:49:01.073Z,102127.28
2022-12-27T19:51:38.558Z,102138.34
2022-12-27T19:54:13.814Z,102138.06
2022-12-27T19:56:49.783Z,102141.41
2022-12-27T19:59:25.270Z,102152.91
2022-12-27T20:01:52.709Z,102153.56
2022-12-27T20:04:19.590Z,102154.00
2022-12-27T20:06:52.728Z,102150.41
2022-12-27T20:09:22.812Z,102146.94
2022-12-27T20:11:49.926Z,102159.97
2022-12-27T20:14:16.818Z,102154.28
2022-12-27T20:16:46.477Z,102151.66
2022-12-27T20:19:15.683Z,102148.06
2022-12-27T20:21:42.751Z,102153.31
2022-12-27T20:24:11.367Z,102144.47
2022-12-27T20:26:41.960Z,102144.31
2022-12-27T20:29:13.778Z,102156.47
2022-12-27T20:31:45.078Z,102149.41
2022-12-27T20:34:12.829Z,102149.69
2022-12-27T20:36:39.582Z,102153.44
2022-12-27T20:39:07.689Z,102153.53
2022-12-27T20:41:37.347Z,102145.09
2022-12-27T20:44:04.166Z,102145.38
2022-12-27T20:46:31.154Z,102153.41
2022-12-27T20:49:04.954Z,102159.94
2022-12-27T20:51:34.774Z,102167.94
2022-12-27T20:54:03.074Z,102169.59
2022-12-27T20:56:30.104Z,102172.22
2022-12-27T20:58:56.921Z,102183.28
2022-12-27T21:01:26.144Z,102190.22
2022-12-27T21:03:54.953Z,102192.34
2022-12-27T21:06:27.729Z,102190.13
2022-12-27T21:08:57.708Z,102191.63
2022-12-27T21:11:35.631Z,102189.72
2022-12-27T21:14:05.320Z,102187.75
2022-12-27T21:16:33.970Z,102180.41
2022-12-27T21:19:01.749Z,102179.19
2022-12-27T21:21:29.049Z,102180.56
2022-12-27T21:23:59.729Z,102187.75
2022-12-27T21:26:31.900Z,102185.38
2022-12-27T21:28:59.907Z,102190.50
2022-12-27T21:31:26.898Z,102177.78
2022-12-27T21:33:56.141Z,102178.72
2022-12-27T21:36:24.815Z,102178.75
2022-12-27T21:38:53.427Z,102186.06
2022-12-27T21:41:22.963Z,102189.75
2022-12-27T21:43:50.456Z,102187.09
2022-12-27T21:46:45.357Z,102179.63
2022-12-27T21:49:15.310Z,102178.34
2022-12-27T21:51:46.126Z,102175.88
2022-12-27T21:54:12.851Z,102173.53
2022-12-27T21:56:40.146Z,102176.69
2022-12-27T21:59:12.537Z,102181.16
2022-12-27T22:01:49.686Z,102178.91
2022-12-27T22:04:18.792Z,102179.75
2022-12-27T22:06:47.499Z,102180.19
2022-12-27T22:09:14.594Z,102179.22
2022-12-27T22:11:41.249Z,102180.22
2022-12-27T22:14:07.959Z,102171.59
2022-12-27T22:16:37.174Z,102179.88
2022-12-27T22:19:13.916Z,102178.44
2022-12-27T22:21:41.233Z,102176.72
2022-12-27T22:24:11.977Z,102177.78
2022-12-27T22:26:38.650Z,102185.25
2022-12-27T22:29:06.574Z,102191.47
2022-12-27T22:31:34.315Z,102186.03
2022-12-27T22:34:02.221Z,102188.66
2022-12-27T22:36:29.457Z,102192.38
2022-12-27T22:38:57.722Z,102179.63
2022-12-27T22:41:32.682Z,102185.72
2022-12-27T22:44:01.868Z,102183.22
2022-12-27T22:46:58.675Z,102187.22
2022-12-27T22:49:18.889Z,102188.59
2022-12-27T22:51:45.572Z,102196.25
2022-12-27T22:54:12.210Z,102186.28
2022-12-27T22:56:41.081Z,102183.28
2022-12-27T22:59:13.294Z,102190.75
2022-12-27T23:01:44.698Z,102174.41
2022-12-27T23:04:13.717Z,102172.53
2022-12-27T23:06:41.066Z,102172.34
2022-12-27T23:09:07.932Z,102173.69
2022-12-27T23:11:37.161Z,102176.16
2022-12-27T23:14:07.219Z,102178.59
2022-12-27T23:16:38.470Z,102179.69
2022-12-27T23:19:05.730Z,102175.09
2022-12-27T23:21:32.665Z,102185.72
2022-12-27T23:23:59.627Z,102183.66
2022-12-27T23:26:27.331Z,102184.34
2022-12-27T23:29:01.736Z,102180.38
2022-12-27T23:31:28.622Z,102176.91
2022-12-27T23:33:55.723Z,102176.22
2022-12-27T23:36:22.761Z,102167.88
2022-12-27T23:38:51.674Z,102167.56
2022-12-27T23:41:22.884Z,102170.06
2022-12-27T23:43:52.733Z,102166.00
2022-12-27T23:46:24.970Z,102167.69
2022-12-27T23:48:53.658Z,102166.00
2022-12-27T23:51:22.056Z,102160.75
2022-12-27T23:53:48.881Z,102162.88
2022-12-27T23:56:33.860Z,102166.91
2022-12-27T23:59:01.959Z,102162.19
